sensor_id;sensor_type;location;lat;lon;timestamp;pressure;altitude;pressure_sealevel;temperature;humidity
56272;BME280;42177;48.914;18.160;2023-03-14T03:51:33;970.2;;;11.3;56.2
56272;BME280;42177;48.914;18.160;2023-03-14T03:56:33;970.2;;;11.3;56.2
56272;BME280;42177;48.914;18.160;2023-03-14T04:01:33;970.3;;;11.4;56
56272;BME280;42177;48.914;18.160;2023-03-14T04:06:33;970.3;;;11.4;56
56272;BME280;42177;48.914;18.160;2023-03-14T04:11:33;969.9;;;11.2;56.5
56272;BME280;42177;48.914;18.160;2023-03-14T04:16:33;969.9;;;11.2;56.5
56272;BME280;42177;48.914;18.160;2023-03-14T04:21:33;970.1;;;11.3;56.4
56272;BME280;42177;48.914;18.160;2023-03-14T04:26:33;970.1;;;11.3;56.4
56272;BME280;42177;48.914;18.160;2023-03-14T04:31:33;970.2;;;11.4;56.1
56272;BME280;42177;48.914;18.160;2023-03-14T04:36:33;970.2;;;11.4;56.1
56272;BME280;42177;48.914;18.160;2023-03-14T04:41:33;970.6;;;11;56.7
56272;BME280;42177;48.914;18.160;2023-03-14T04:46:33;970.6;;;11;56.7
56272;BME280;42177;48.914;18.160;2023-03-14T04:51:33;970.2;;;11.1;56.6
56272;BME280;42177;48.914;18.160;2023-03-14T04:56:33;970.2;;;11.1;56.6
56272;BME280;42177;48.914;18.160;2023-03-14T05:01:33;969.8;;;11;56.8
56272;BME280;42177;48.914;18.160;2023-03-14T05:06:33;969.8;;;11;56.8
56272;BME280;42177;48.914;18.160;2023-03-14T05:11:33;969.8;;;11;56.9
56272;BME280;42177;48.914;18.160;2023-03-14T05:16:33;969.8;;;11;56.9
56272;BME280;42177;48.914;18.160;2023-03-14T05:21:33;969.5;;;11;57
56272;BME280;42177;48.914;18.160;2023-03-14T05:26:33;969.5;;;11;57
56272;BME280;42177;48.914;18.160;2023-03-14T05:31:33;969.3;;;11.2;56.6
56272;BME280;42177;48.914;18.160;2023-03-14T05:36:33;969.3;;;11.2;56.6
56272;BME280;42177;48.914;18.160;2023-03-14T05:41:33;969.7;;;11;57.1
56272;BME280;42177;48.914;18.160;2023-03-14T05:46:33;969.7;;;11;57.1
56272;BME280;42177;48.914;18.160;2023-03-14T05:51:33;969.1;;;10.9;57.7
56272;BME280;42177;48.914;18.160;2023-03-14T05:56:33;969.1;;;10.9;57.7
56272;BME280;42177;48.914;18.160;2023-03-14T06:01:33;969.3;;;11.1;57.2
56272;BME280;42177;48.914;18.160;2023-03-14T06:06:33;969.3;;;11.1;57.2
56272;BME280;42177;48.914;18.160;2023-03-14T06:11:33;969.6;;;11.2;57.1
56272;BME280;42177;48.914;18.160;2023-03-14T06:16:33;969.6;;;11.2;57.1
56272;BME280;42177;48.914;18.160;2023-03-14T06:21:33;969.3;;;11.3;57
56272;BME280;42177;48.914;18.160;2023-03-14T06:26:33;969.3;;;11.3;57
56272;BME280;42177;48.914;18.160;2023-03-14T06:31:33;969.7;;;11.3;57.1
56272;BME280;42177;48.914;18.160;2023-03-14T06:36:33;969.7;;;11.3;57.1
56272;BME280;42177;48.914;18.160;2023-03-14T06:41:33;969.9;;;11.2;57.5
56272;BME280;42177;48.914;18.160;2023-03-14T06:46:33;969.9;;;11.2;57.5
56272;BME280;42177;48.914;18.160;2023-03-14T06:51:33;970.4;;;11.3;57.5
56272;BME280;42177;48.914;18.160;2023-03-14T06:56:33;970.4;;;11.3;57.5
56272;BME280;42177;48.914;18.160;2023-03-14T07:01:33;970.5;;;11.4;57.4
56272;BME280;42177;48.914;18.160;2023-03-14T07:06:33;970.5;;;11.4;57.4
56272;BME280;42177;48.914;18.160;2023-03-14T07:11:33;970.5;;;11.5;57.1
56272;BME280;42177;48.914;18.160;2023-03-14T07:16:34;970.5;;;11.5;57.1
56272;BME280;42177;48.914;18.160;2023-03-14T07:21:33;970.4;;;11.5;57.7
56272;BME280;42177;48.914;18.160;2023-03-14T07:26:33;970.4;;;11.5;57.7
56272;BME280;42177;48.914;18.160;2023-03-14T07:31:33;970.6;;;11.5;58.7
56272;BME280;42177;48.914;18.160;2023-03-14T07:36:33;970.6;;;11.5;58.7
56272;BME280;42177;48.914;18.160;2023-03-14T07:41:33;970.4;;;11.6;59.3
56272;BME280;42177;48.914;18.160;2023-03-14T07:46:33;970.4;;;11.6;59.3
56272;BME280;42177;48.914;18.160;2023-03-14T07:51:33;970.6;;;11.7;59.8
56272;BME280;42177;48.914;18.160;2023-03-14T07:56:33;970.6;;;11.7;59.8
56272;BME280;42177;48.914;18.160;2023-03-14T08:01:33;970.5;;;12.4;58.3
56272;BME280;42177;48.914;18.160;2023-03-14T08:06:34;970.5;;;12.4;58.3
56272;BME280;42177;48.914;18.160;2023-03-14T08:11:33;970.5;;;12.2;59.2
56272;BME280;42177;48.914;18.160;2023-03-14T08:16:33;970.5;;;12.2;59.2
56272;BME280;42177;48.914;18.160;2023-03-14T08:21:33;970.6;;;12.6;58.1
56272;BME280;42177;48.914;18.160;2023-03-14T08:26:33;970.6;;;12.6;58.1
56272;BME280;42177;48.914;18.160;2023-03-14T08:31:33;970.5;;;12.8;57.5
56272;BME280;42177;48.914;18.160;2023-03-14T08:36:33;970.5;;;12.8;57.5
56272;BME280;42177;48.914;18.160;2023-03-14T08:41:33;970.5;;;13;58.1
56272;BME280;42177;48.914;18.160;2023-03-14T08:46:33;970.5;;;13;58.1
56272;BME280;42177;48.914;18.160;2023-03-14T08:51:33;970.7;;;13.1;58.9
56272;BME280;42177;48.914;18.160;2023-03-14T08:56:33;970.7;;;13.1;58.9
56272;BME280;42177;48.914;18.160;2023-03-14T09:01:33;970.3;;;13.1;59.6
56272;BME280;42177;48.914;18.160;2023-03-14T09:06:33;970.3;;;13.1;59.6
56272;BME280;42177;48.914;18.160;2023-03-14T09:11:33;970.4;;;13.3;59.6
56272;BME280;42177;48.914;18.160;2023-03-14T09:16:33;970.4;;;13.3;59.6
56272;BME280;42177;48.914;18.160;2023-03-14T09:21:33;970.2;;;13.4;60.4
56272;BME280;42177;48.914;18.160;2023-03-14T09:26:33;970.2;;;13.4;60.4
56272;BME280;42177;48.914;18.160;2023-03-14T09:31:33;970.3;;;13.5;60.7
56272;BME280;42177;48.914;18.160;2023-03-14T09:36:33;970.3;;;13.5;60.7
56272;BME280;42177;48.914;18.160;2023-03-14T09:41:34;970.4;;;13.5;60.7
56272;BME280;42177;48.914;18.160;2023-03-14T09:46:34;970.4;;;13.5;60.7
56272;BME280;42177;48.914;18.160;2023-03-14T09:51:33;970.3;;;13.8;60.9
56272;BME280;42177;48.914;18.160;2023-03-14T09:56:33;970.3;;;13.8;60.9
56272;BME280;42177;48.914;18.160;2023-03-14T10:01:33;970.2;;;13.4;62.8
56272;BME280;42177;48.914;18.160;2023-03-14T10:06:33;970.2;;;13.4;62.8
56272;BME280;42177;48.914;18.160;2023-03-14T10:11:33;970.3;;;13.5;63.3
56272;BME280;42177;48.914;18.160;2023-03-14T10:16:34;970.3;;;13.5;63.3
56272;BME280;42177;48.914;18.160;2023-03-14T10:21:37;970.1;;;13.9;63
56272;BME280;42177;48.914;18.160;2023-03-14T10:26:33;970.1;;;13.9;63
56272;BME280;42177;48.914;18.160;2023-03-14T10:31:45;970.1;;;14;62.3
56272;BME280;42177;48.914;18.160;2023-03-14T10:36:33;970.1;;;14;62.3
56272;BME280;42177;48.914;18.160;2023-03-14T10:41:33;970.4;;;13.8;63.2
56272;BME280;42177;48.914;18.160;2023-03-14T10:46:33;970.4;;;13.8;63.2
56272;BME280;42177;48.914;18.160;2023-03-14T10:51:33;970.2;;;13.8;64.1
56272;BME280;42177;48.914;18.160;2023-03-14T10:56:35;970.2;;;13.8;64.1
56272;BME280;42177;48.914;18.160;2023-03-14T11:01:36;969.9;;;14;64.6
56272;BME280;42177;48.914;18.160;2023-03-14T11:06:36;969.9;;;14;64.6
56272;BME280;42177;48.914;18.160;2023-03-14T11:11:33;969.8;;;14.4;64.2
56272;BME280;42177;48.914;18.160;2023-03-14T11:16:34;969.8;;;14.4;64.2
56272;BME280;42177;48.914;18.160;2023-03-14T11:21:35;969.6;;;14.3;64.9
56272;BME280;42177;48.914;18.160;2023-03-14T11:26:35;969.6;;;14.3;64.9
56272;BME280;42177;48.914;18.160;2023-03-14T11:31:33;969.5;;;14.1;65.3
56272;BME280;42177;48.914;18.160;2023-03-14T11:36:36;969.5;;;14.1;65.3
56272;BME280;42177;48.914;18.160;2023-03-14T11:41:34;969.4;;;14;66.1
56272;BME280;42177;48.914;18.160;2023-03-14T11:46:34;969.4;;;14;66.1
56272;BME280;42177;48.914;18.160;2023-03-14T11:51:34;969.4;;;14;66.9
56272;BME280;42177;48.914;18.160;2023-03-14T11:56:34;969.4;;;14;66.9
56272;BME280;42177;48.914;18.160;2023-03-14T12:01:36;969.3;;;13.9;68.1
56272;BME280;42177;48.914;18.160;2023-03-14T12:06:34;969.3;;;13.9;68.1
56272;BME280;42177;48.914;18.160;2023-03-14T12:11:35;969.2;;;13.8;71.8
56272;BME280;42177;48.914;18.160;2023-03-14T12:16:34;969.2;;;13.8;71.8
56272;BME280;42177;48.914;18.160;2023-03-14T12:21:43;969;;;13.5;76.3
56272;BME280;42177;48.914;18.160;2023-03-14T12:26:43;969;;;13.5;76.3
56272;BME280;42177;48.914;18.160;2023-03-14T12:31:37;969;;;13.4;78.3
56272;BME280;42177;48.914;18.160;2023-03-14T12:37:41;969;;;13.4;78.3
56272;BME280;42177;48.914;18.160;2023-03-14T12:41:36;969.2;;;13.5;81.1
56272;BME280;42177;48.914;18.160;2023-03-14T12:46:33;969.2;;;13.5;81.1
56272;BME280;42177;48.914;18.160;2023-03-14T12:51:34;969.2;;;13.6;82.4
56272;BME280;42177;48.914;18.160;2023-03-14T12:56:38;969.2;;;13.6;82.4
56272;BME280;42177;48.914;18.160;2023-03-14T13:01:33;969.2;;;13.7;84.8
56272;BME280;42177;48.914;18.160;2023-03-14T13:06:50;969.2;;;13.7;84.8
56272;BME280;42177;48.914;18.160;2023-03-14T13:11:33;969.2;;;13.6;85.4
56272;BME280;42177;48.914;18.160;2023-03-14T13:16:33;969.2;;;13.6;85.4
56272;BME280;42177;48.914;18.160;2023-03-14T13:21:34;969.3;;;13.6;91.5
56272;BME280;42177;48.914;18.160;2023-03-14T13:26:34;969.3;;;13.6;91.5
56272;BME280;42177;48.914;18.160;2023-03-14T13:31:33;969.3;;;13.4;98.2
56272;BME280;42177;48.914;18.160;2023-03-14T13:36:35;969.3;;;13.4;98.2
56272;BME280;42177;48.914;18.160;2023-03-14T13:41:33;969.3;;;13.3;97.6
56272;BME280;42177;48.914;18.160;2023-03-14T13:46:34;969.3;;;13.3;97.6
56272;BME280;42177;48.914;18.160;2023-03-14T13:51:33;969.2;;;13.1;94.3
56272;BME280;42177;48.914;18.160;2023-03-14T13:56:33;969.2;;;13.1;94.3
56272;BME280;42177;48.914;18.160;2023-03-14T14:01:33;969.3;;;13;94.3
56272;BME280;42177;48.914;18.160;2023-03-14T14:06:34;969.3;;;13;94.3
56272;BME280;42177;48.914;18.160;2023-03-14T14:11:36;969.7;;;12.6;95.7
56272;BME280;42177;48.914;18.160;2023-03-14T14:16:33;969.7;;;12.6;95.7
56272;BME280;42177;48.914;18.160;2023-03-14T14:21:33;969.5;;;12.5;97.8
56272;BME280;42177;48.914;18.160;2023-03-14T14:26:33;969.5;;;12.5;97.8
56272;BME280;42177;48.914;18.160;2023-03-14T14:31:33;969.7;;;12.4;98.5
56272;BME280;42177;48.914;18.160;2023-03-14T14:36:36;969.7;;;12.4;98.5
56272;BME280;42177;48.914;18.160;2023-03-14T14:41:34;969.8;;;12.1;100
56272;BME280;42177;48.914;18.160;2023-03-14T14:46:34;969.8;;;12.1;100
56272;BME280;42177;48.914;18.160;2023-03-14T14:51:34;969.8;;;12.4;100
56272;BME280;42177;48.914;18.160;2023-03-14T14:56:34;969.8;;;12.4;100
56272;BME280;42177;48.914;18.160;2023-03-14T15:01:34;969.7;;;12.4;100
56272;BME280;42177;48.914;18.160;2023-03-14T15:06:33;969.7;;;12.4;100
56272;BME280;42177;48.914;18.160;2023-03-14T15:11:33;970;;;12.4;100
56272;BME280;42177;48.914;18.160;2023-03-14T15:16:33;970;;;12.4;100
56272;BME280;42177;48.914;18.160;2023-03-14T15:21:33;969.9;;;12.1;100
56272;BME280;42177;48.914;18.160;2023-03-14T15:26:33;969.9;;;12.1;100
56272;BME280;42177;48.914;18.160;2023-03-14T15:31:33;969.8;;;12.4;100
56272;BME280;42177;48.914;18.160;2023-03-14T15:36:34;969.8;;;12.4;100
56272;BME280;42177;48.914;18.160;2023-03-14T15:41:33;970;;;11.8;100
56272;BME280;42177;48.914;18.160;2023-03-14T15:46:33;970;;;11.8;100
56272;BME280;42177;48.914;18.160;2023-03-14T15:51:33;969.9;;;11.6;100
56272;BME280;42177;48.914;18.160;2023-03-14T15:56:33;969.9;;;11.6;100
56272;BME280;42177;48.914;18.160;2023-03-14T16:01:33;969.5;;;11.4;100
56272;BME280;42177;48.914;18.160;2023-03-14T16:06:33;969.5;;;11.4;100
56272;BME280;42177;48.914;18.160;2023-03-14T16:11:33;969.7;;;11.9;100
56272;BME280;42177;48.914;18.160;2023-03-14T16:16:33;969.7;;;11.9;100
56272;BME280;42177;48.914;18.160;2023-03-14T16:21:33;969.7;;;11.8;100
56272;BME280;42177;48.914;18.160;2023-03-14T16:26:33;969.7;;;11.8;100
56272;BME280;42177;48.914;18.160;2023-03-14T16:31:34;969.6;;;11.6;100
56272;BME280;42177;48.914;18.160;2023-03-14T16:36:34;969.6;;;11.6;100
56272;BME280;42177;48.914;18.160;2023-03-14T16:41:33;969.6;;;11.4;100
56272;BME280;42177;48.914;18.160;2023-03-14T16:46:33;969.6;;;11.4;100
56272;BME280;42177;48.914;18.160;2023-03-14T16:51:33;969.5;;;11.6;100
56272;BME280;42177;48.914;18.160;2023-03-14T16:56:33;969.5;;;11.6;100
56272;BME280;42177;48.914;18.160;2023-03-14T17:01:35;969.5;;;11.5;100
56272;BME280;42177;48.914;18.160;2023-03-14T17:06:33;969.5;;;11.5;100
56272;BME280;42177;48.914;18.160;2023-03-14T17:11:33;969.7;;;11.2;100
56272;BME280;42177;48.914;18.160;2023-03-14T17:16:33;969.7;;;11.2;100
56272;BME280;42177;48.914;18.160;2023-03-14T17:21:33;969.7;;;11.4;100
56272;BME280;42177;48.914;18.160;2023-03-14T17:26:33;969.7;;;11.4;100
56272;BME280;42177;48.914;18.160;2023-03-14T17:31:33;969.9;;;11.3;100
56272;BME280;42177;48.914;18.160;2023-03-14T17:36:33;969.9;;;11.3;100
56272;BME280;42177;48.914;18.160;2023-03-14T17:41:33;969.6;;;11.1;100
56272;BME280;42177;48.914;18.160;2023-03-14T17:46:33;969.6;;;11.1;100
56272;BME280;42177;48.914;18.160;2023-03-14T17:51:33;970.1;;;11.4;100
56272;BME280;42177;48.914;18.160;2023-03-14T17:56:33;970.1;;;11.4;100
56272;BME280;42177;48.914;18.160;2023-03-14T18:01:33;970.2;;;11.1;100
56272;BME280;42177;48.914;18.160;2023-03-14T18:06:33;970.2;;;11.1;100
56272;BME280;42177;48.914;18.160;2023-03-14T18:11:33;970.4;;;11.2;100
56272;BME280;42177;48.914;18.160;2023-03-14T18:16:34;970.4;;;11.2;100
56272;BME280;42177;48.914;18.160;2023-03-14T18:21:33;970.7;;;11.1;100
56272;BME280;42177;48.914;18.160;2023-03-14T18:26:33;970.7;;;11.1;100
56272;BME280;42177;48.914;18.160;2023-03-14T18:31:33;970.9;;;10.9;100
56272;BME280;42177;48.914;18.160;2023-03-14T18:36:33;970.9;;;10.9;100
56272;BME280;42177;48.914;18.160;2023-03-14T18:41:33;971;;;11.2;100
56272;BME280;42177;48.914;18.160;2023-03-14T18:46:33;971;;;11.2;100
56272;BME280;42177;48.914;18.160;2023-03-14T18:51:33;971;;;11.1;100
56272;BME280;42177;48.914;18.160;2023-03-14T18:56:33;971;;;11.1;100
56272;BME280;42177;48.914;18.160;2023-03-14T19:01:33;971.2;;;11.1;100
56272;BME280;42177;48.914;18.160;2023-03-14T19:06:33;971.2;;;11.1;100
56272;BME280;42177;48.914;18.160;2023-03-14T19:11:33;971.4;;;11;100
56272;BME280;42177;48.914;18.160;2023-03-14T19:16:33;971.4;;;11;100
56272;BME280;42177;48.914;18.160;2023-03-14T19:21:36;971.6;;;11;100
56272;BME280;42177;48.914;18.160;2023-03-14T19:26:36;971.6;;;11;100
56272;BME280;42177;48.914;18.160;2023-03-14T19:31:33;971.4;;;10.6;100
56272;BME280;42177;48.914;18.160;2023-03-14T19:36:35;971.4;;;10.6;100
56272;BME280;42177;48.914;18.160;2023-03-14T19:41:33;971.5;;;10.6;100
56272;BME280;42177;48.914;18.160;2023-03-14T19:46:33;971.5;;;10.6;100
56272;BME280;42177;48.914;18.160;2023-03-14T19:51:33;971.6;;;10.4;100
56272;BME280;42177;48.914;18.160;2023-03-14T19:56:33;971.6;;;10.4;100
56272;BME280;42177;48.914;18.160;2023-03-14T20:01:33;971.6;;;10.5;100
56272;BME280;42177;48.914;18.160;2023-03-14T20:06:33;971.6;;;10.5;100
56272;BME280;42177;48.914;18.160;2023-03-14T20:11:33;971.7;;;10.1;100
56272;BME280;42177;48.914;18.160;2023-03-14T20:16:34;971.7;;;10.1;100
56272;BME280;42177;48.914;18.160;2023-03-14T20:21:33;971.8;;;10.7;100
56272;BME280;42177;48.914;18.160;2023-03-14T20:26:33;971.8;;;10.7;100
56272;BME280;42177;48.914;18.160;2023-03-14T20:31:33;971.7;;;10.8;100
56272;BME280;42177;48.914;18.160;2023-03-14T20:36:33;971.7;;;10.8;100
56272;BME280;42177;48.914;18.160;2023-03-14T20:41:33;971.8;;;11;100
56272;BME280;42177;48.914;18.160;2023-03-14T20:46:33;971.8;;;11;100
56272;BME280;42177;48.914;18.160;2023-03-14T20:51:33;971.8;;;11;100
56272;BME280;42177;48.914;18.160;2023-03-14T20:56:33;971.8;;;11;100
56272;BME280;42177;48.914;18.160;2023-03-14T21:01:33;971.9;;;10.6;100
56272;BME280;42177;48.914;18.160;2023-03-14T21:06:33;971.9;;;10.6;100
56272;BME280;42177;48.914;18.160;2023-03-14T21:11:33;972;;;10.6;100
56272;BME280;42177;48.914;18.160;2023-03-14T21:16:33;972;;;10.6;100
56272;BME280;42177;48.914;18.160;2023-03-14T21:21:33;972;;;10.7;100
56272;BME280;42177;48.914;18.160;2023-03-14T21:26:33;972;;;10.7;100
56272;BME280;42177;48.914;18.160;2023-03-14T21:31:33;972.1;;;10.5;100
56272;BME280;42177;48.914;18.160;2023-03-14T21:36:33;972.1;;;10.5;100
56272;BME280;42177;48.914;18.160;2023-03-14T21:41:33;972.2;;;10.9;100
56272;BME280;42177;48.914;18.160;2023-03-14T21:46:33;972.2;;;10.9;100
56272;BME280;42177;48.914;18.160;2023-03-14T21:51:33;972.3;;;10.9;100
56272;BME280;42177;48.914;18.160;2023-03-14T21:56:33;972.3;;;10.9;100
56272;BME280;42177;48.914;18.160;2023-03-14T22:01:33;972.3;;;10.9;100
56272;BME280;42177;48.914;18.160;2023-03-14T22:06:33;972.3;;;10.9;100
56272;BME280;42177;48.914;18.160;2023-03-14T22:11:33;972.4;;;10.5;100
56272;BME280;42177;48.914;18.160;2023-03-14T22:16:33;972.4;;;10.5;100
56272;BME280;42177;48.914;18.160;2023-03-14T22:21:33;972.6;;;11;100
56272;BME280;42177;48.914;18.160;2023-03-14T22:26:33;972.6;;;11;100
56272;BME280;42177;48.914;18.160;2023-03-14T22:31:34;972.7;;;10.8;100
56272;BME280;42177;48.914;18.160;2023-03-14T22:36:33;972.7;;;10.8;100
56272;BME280;42177;48.914;18.160;2023-03-14T22:41:34;972.9;;;11;98
56272;BME280;42177;48.914;18.160;2023-03-14T22:46:33;972.9;;;11;98
56272;BME280;42177;48.914;18.160;2023-03-14T22:51:33;972.9;;;11;96.6
56272;BME280;42177;48.914;18.160;2023-03-14T22:56:33;972.9;;;11;96.6
56272;BME280;42177;48.914;18.160;2023-03-14T23:01:33;972.9;;;10.9;92.5
56272;BME280;42177;48.914;18.160;2023-03-14T23:06:33;972.9;;;10.9;92.5
56272;BME280;42177;48.914;18.160;2023-03-14T23:11:33;973.3;;;11.1;90.2
56272;BME280;42177;48.914;18.160;2023-03-14T23:16:33;973.3;;;11.1;90.2
56272;BME280;42177;48.914;18.160;2023-03-14T23:21:33;973.4;;;10.9;89
56272;BME280;42177;48.914;18.160;2023-03-14T23:26:33;973.4;;;10.9;89
56272;BME280;42177;48.914;18.160;2023-03-14T23:31:33;973.7;;;10.8;85.8
56272;BME280;42177;48.914;18.160;2023-03-14T23:36:33;973.7;;;10.8;85.8
56272;BME280;42177;48.914;18.160;2023-03-14T23:41:33;973.9;;;10.8;85.7
56272;BME280;42177;48.914;18.160;2023-03-14T23:46:33;973.9;;;10.8;85.7
56272;BME280;42177;48.914;18.160;2023-03-14T23:51:33;974.1;;;10.4;78.1
56272;BME280;42177;48.914;18.160;2023-03-14T23:56:33;974.1;;;10.4;78.1
